Historyczne dane pomiarowe

Dodano dane terminowe – wersja testowa.

Dane z okresu 1951-2019

Wersja bazy: 1.34 [2019-03-16, lista zmian], aktualizacja planowana na 2019-04-15

Dane meteo z obszaru Polski uzyskane na podstawie danych udostępnionych przez Instytut Meteorologii i Gospodarki Wodnej – Państwowy Instytut Badawczy.

 

Wybierz Datę:    

       

TemperaturaWilgotnośćWiatrCiśnienieOpadyŚniegCzas trwania zjawisk
 Stacja t tx tn tng RH VA  wxwx mslp ppp RRR   cm mm wxwxwxwxwxwxwx
1999-08-14 14.5 22.4 7.9--- 2.3 1.0---- 0.0------------
1999-08-13 14.7 21.5 6.8--- 5.0 1.3---- 0.0------------
1999-08-12 16.0 21.2 13.4--- 4.3 1.3---- 0.0------------
1999-08-11 19.3 25.0 14.7--- 3.7 1.3---- 0.0------------
1999-08-10 19.3 28.5 11.5--- 4.7 1.0---- 0.5------------
1999-08-09 21.8 31.4 14.9--- 3.0 1.3---- 0.5------------
1999-08-08 22.1 29.5 16.3--- 5.0 1.0---- 0.0------------
1999-08-07 20.6 30.0 11.3--- 4.7 1.0---- 1.6------------
1999-08-06 21.4 27.5 16.1--- 4.0 1.0---- 0.0------------
1999-08-05 17.9 27.7 8.3--- 3.3 0.7---- 0.0------------
1999-08-04 17.1 26.5 7.3--- 2.0 0.3---- 0.0------------
1999-08-03 17.3 25.5 10.8--- 3.3 0.0---- 0.0------------
1999-08-02 16.6 25.8 9.0--- 4.7 0.7---- 0.0------------
1999-08-01 17.0 24.5 10.0--- 4.7 0.7---- 2.6------------
1999-07-31 19.0 27.0 9.3- 74.3- 4.0 1.3---- 0.0------------
1999-07-30 17.4 25.5 8.5- 77.8- 1.7 1.7---- 0.0------------
1999-07-29 17.6 25.3 10.3- 81.0- 2.7 1.3---- 0.0------------
1999-07-28 18.2 25.7 11.3- 87.8- 1.3 1.3---- 0.0------------
1999-07-27 19.1 24.3 15.7- 81.8- 3.3 2.7---- 0.0------------
1999-07-26 19.4 27.5 9.8- 84.5- 2.3 0.3---- 0.0------------
1999-07-25 17.8 25.7 8.8- 83.0- 1.3 0.3---- 0.0------------
1999-07-24 16.6 21.4 11.8- 87.3- 5.3 1.0---- 0.0------------
1999-07-23 15.9 19.3 13.7- 91.3- 6.0 0.7---- 2.7------------
1999-07-22 19.4 24.0 16.2- 78.5- 4.7 1.7---- 0.0------------
1999-07-21 22.2 28.4 16.2- 79.8- 4.0 0.7---- 0.0------------
1999-07-20 21.9 29.5 12.8- 77.3- 1.0 0.7---- 0.0------------
1999-07-19 20.6 28.3 10.3- 55.8- 3.7 0.3---- 0.0------------
1999-07-18 18.3 26.5 9.3- 82.0- 1.7 1.0---- 0.0------------
1999-07-17 16.6 23.0 9.8- 88.8- 2.3 0.3---- 0.0------------
1999-07-16 16.4 22.3 11.0- 88.0- 2.7 1.0---- 0.0------------
1999-07-15 17.2 21.6 14.9- 85.5- 4.0 2.3---- 0.0------------
1999-07-14 20.4 27.5 17.2- 86.8- 5.0 2.0---- 11.2------------
1999-07-13 20.9 27.0 14.9- 91.3- 5.0 0.3---- 22.3------------
1999-07-12 20.9 28.4 13.5- 71.3- 3.3 3.0---- 0.0------------
1999-07-11 20.5 25.5 15.7- 64.8- 3.7 3.3---- 0.1------------
1999-07-10 21.1 26.4 16.3- 69.5- 3.7 3.7---- 0.0------------
1999-07-09 19.6 22.5 17.2- 89.8- 5.0 1.7---- 0.0------------
1999-07-08 17.7 20.0 16.7- 95.8- 6.3 2.7---- 0.7------------
1999-07-07 21.1 28.0 16.4- 81.8- 6.0 2.0---- 11.6------------
1999-07-06 24.7 32.0 16.3- 68.3- 2.7 2.0---- 0.0------------
1999-07-05 24.2 33.0 14.2- 65.5- 0.7 1.7---- 0.0------------
1999-07-04 22.0 31.7 11.1- 70.8- 0.7 1.3---- 0.0------------
1999-07-03 21.0 26.5 14.9- 79.5- 2.0 0.3---- 0.0------------
1999-07-02 19.5 25.0 13.7- 81.0- 4.0 1.0---- 0.0------------
1999-07-01 19.1 26.4 10.8- 79.3- 5.7 0.7---- 0.5------------
1999-06-30 19.1 26.0 10.2- 78.5- 2.7 0.7---- 0.0------------
1999-06-29 19.8 24.4 15.2- 74.0- 2.3 1.3---- 0.0------------
1999-06-28 19.9 28.3 12.3- 79.3- 4.0 0.7---- 0.0------------
1999-06-27 19.1 26.4 10.1- 71.3- 0.0 2.0---- 0.0------------
1999-06-26 15.2 23.3 9.3- 83.0- 2.7 1.7---- 0.0------------
1999-06-25 13.5 19.0 6.0- 81.5- 3.3 1.7---- 1.6------------
1999-06-24 12.4 17.2 5.7- 80.5- 3.3 1.3---- 0.0------------
1999-06-23 10.1 12.7 7.6- 97.0- 6.3 2.7---- 0.9------------
1999-06-22 11.1 16.6 8.3- 95.8- 8.0 4.3---- 52.8------------
1999-06-21 17.9 23.7 13.0- 84.5- 5.0 1.3---- 12.3------------
1999-06-20 17.6 21.3 13.2- 92.3- 4.3 0.0---- 0.0------------
1999-06-19 15.8 18.4 13.5- 93.0- 6.3 1.0---- 0.0------------
1999-06-18 17.1 18.7 15.9- 98.5- 8.0 1.3---- 27.5------------
1999-06-17 18.5 22.0 16.2- 94.0- 5.7 1.3---- 12.2------------
1999-06-16 17.3 19.5 15.2- 96.8- 6.3 1.0---- 0.5------------
1509.4 ms

 

Źródłem pochodzenia danych jest Instytut Meteorologii i Gospodarki Wodnej – Państwowy Instytut Badawczy. Dane Instytutu Meteorologii i Gospodarki Wodnej – Państwowego Instytutu Badawczego zostały przetworzone.

Dane źródłowe można odnaleźć na stronie https://dane.imgw.pl